YM Utopia — A8OR5 — position and weather

sailwx.info

Track history (hours):
 
Tides and Currents Weather Stations Pressure Air Temp Water Temp Dewpoint Dewpoint Depression Visibility Wind Speed Wind Dir Waves Ship Positions

YM Utopia

Last reported at 2018-Jun-23 22:38 UTC. Time now 2018-Jun-24 04:50 UTC.
Position N 36°53' W 001°10'.

Length 333 m; draft 12.3 m.

Type: Ship (hazmat cat A). MMSI: 636013690.

Date/timePositionNaut miles runAvg speedWind from/ knotsBaromVisibWave heightAir tempDewpointWater temp
2018-Jun-23 22:38N 36°53' W 001°10'0 1.0
2018-Jun-23 22:30N 36°53' W 001°09'1 1.1
2018-Jun-23 21:35N 36°53' W 001°08'0 0.9
2018-Jun-23 21:30N 36°53' W 001°08'0 0.7
2018-Jun-23 21:00N 36°53' W 001°08'1 1.0
2018-Jun-23 20:30N 36°53' W 001°07'0 0.9
2018-Jun-23 20:00N 36°53' W 001°07'1 1.1
2018-Jun-23 19:30N 36°54' W 001°06'0 0.9
2018-Jun-23 19:00N 36°54' W 001°06'0 0.9
2018-Jun-23 18:30N 36°54' W 001°05'0 0.7
2018-Jun-23 18:00N 36°54' W 001°05'0 0.7
2018-Jun-23 17:29N 36°55' W 001°04'0 0.8
2018-Jun-23 17:00N 36°55' W 001°04'0 0.7
2018-Jun-23 16:29N 36°55' W 001°04'1 0.8
2018-Jun-23 15:40N 36°55' W 001°03'0 0.8
2018-Jun-23 15:30N 36°55' W 001°03'1 1.1
2018-Jun-23 14:55N 36°56' W 001°02'1 0.9
2018-Jun-23 14:12N 36°56' W 001°01'1 1.1
2018-Jun-23 13:11N 36°56' W 000°60'0 1.1
2018-Jun-23 13:00N 36°56' W 000°60'1 0.9
2018-Jun-23 11:27N 36°56' W 000°58'0 1.0
2018-Jun-23 10:59N 36°56' W 000°57'1 1.0
2018-Jun-23 10:08N 36°56' W 000°56'0 1.1
2018-Jun-23 09:59N 36°56' W 000°56'1 1.0
2018-Jun-23 08:55N 36°56' W 000°55'0 0.9
2018-Jun-23 08:22N 36°56' W 000°54'0 0.9
2018-Jun-23 08:00N 36°56' W 000°54'0 0.9
2018-Jun-23 07:30N 36°56' W 000°53'0 0.9
2018-Jun-23 07:00N 36°56' W 000°53'1 1.0
2018-Jun-23 06:30N 36°57' W 000°52'0 1.0
2018-Jun-23 06:00N 36°57' W 000°52'1 1.1
2018-Jun-23 05:30N 36°57' W 000°51'1 1.2
2018-Jun-23 04:41N 36°58' W 000°51'0 1.1
2018-Jun-23 04:30N 36°58' W 000°51'1 1.0
2018-Jun-23 03:58N 36°59' W 000°50'0 0.8
2018-Jun-23 03:30N 36°59' W 000°50'0 0.5
2018-Jun-23 03:00N 36°60' W 000°50'0 0.6
2018-Jun-23 02:30N 36°60' W 000°50'0 0.7
2018-Jun-23 02:00N 37°00' W 000°50'0 0.8
2018-Jun-23 01:30N 37°01' W 000°51'1 0.9
2018-Jun-23 00:01N 37°02' W 000°51'0 0.8
2018-Jun-23 00:00N 37°02' W 000°51'0 0.7
2018-Jun-22 23:27N 37°02' W 000°51'0 0.6
2018-Jun-22 23:00N 37°02' W 000°51'0 0.6
2018-Jun-22 22:29N 37°03' W 000°52'0 0.5
2018-Jun-22 21:35N 37°03' W 000°52'0 0.4
2018-Jun-22 21:30N 37°03' W 000°52'0 0.4
2018-Jun-22 21:00N 37°03' W 000°52'0 0.3
2018-Jun-22 20:30N 37°03' W 000°52'0 0.2
2018-Jun-22 20:00N 37°03' W 000°52'0 0.2
2018-Jun-22 19:30N 37°03' W 000°53'0 0.1
2018-Jun-22 19:00N 37°03' W 000°53'0 0.3
2018-Jun-22 18:30N 37°03' W 000°53'1 1.5
2018-Jun-22 18:00N 37°03' W 000°53'1110.6
2018-Jun-22 16:56N 37°11' W 000°43'612.7
2018-Jun-22 16:27N 37°14' W 000°36'0 0.9
2018-Jun-22 16:00N 37°14' W 000°36'1 2.0
2018-Jun-22 15:29N 37°13' W 000°37'612.1
2018-Jun-22 15:00N 37°19' W 000°38'713.4
2018-Jun-22 14:30N 37°26' W 000°38'713.1
2018-Jun-22 13:59N 37°32' W 000°36'713.6
2018-Jun-22 13:30N 37°37' W 000°31'713.8
2018-Jun-22 12:59N 37°43' W 000°26'713.5
2018-Jun-22 12:30N 37°49' W 000°21'713.6
2018-Jun-22 12:00N 37°54' W 000°17'713.6
2018-Jun-22 11:30N 38°00' W 000°12'713.6
2018-Jun-22 11:00N 38°06' W 000°07'713.7
2018-Jun-22 10:30N 38°12' W 000°03'713.7
2018-Jun-22 10:00N 38°18' E 000°02'816.1
2018-Jun-22 09:29N 38°25' E 000°07'2117.9
2018-Jun-22 08:18N 38°43' E 000°21'5014.0
2018-Jun-22 04:45N 39°24' W 000°15'311.9
2018-Jun-22 04:27N 39°26' W 000°19'1 1.5
2018-Jun-22 03:58N 39°27' W 000°19'0 0.0
2018-Jun-22 03:29N 39°27' W 000°19'0 0.0
2018-Jun-22 02:59N 39°27' W 000°19'0 0.0
2018-Jun-22 02:29N 39°27' W 000°19'0 0.0
2018-Jun-22 01:56N 39°27' W 000°19'0 0.0
2018-Jun-22 01:29N 39°27' W 000°19'0 0.0
2018-Jun-22 00:56N 39°27' W 000°19'0 0.0
2018-Jun-22 00:26N 39°27' W 000°19'0 0.0
2018-Jun-21 23:56N 39°27' W 000°19'0 0.0
2018-Jun-21 23:26N 39°27' W 000°19'0 0.0
2018-Jun-21 22:59N 39°27' W 000°19'0 0.0
2018-Jun-21 22:29N 39°27' W 000°19'0 0.0
2018-Jun-21 21:59N 39°27' W 000°19'0 0.0
2018-Jun-21 21:29N 39°27' W 000°19'0 0.0
2018-Jun-21 20:59N 39°27' W 000°19'0 0.0
2018-Jun-21 20:26N 39°27' W 000°19'0 0.0
2018-Jun-21 19:59N 39°27' W 000°19'0 0.0
2018-Jun-21 19:29N 39°27' W 000°19'0 0.0
2018-Jun-21 18:59N 39°27' W 000°19'0 0.0
2018-Jun-21 18:29N 39°27' W 000°19'0 0.0
2018-Jun-21 17:59N 39°27' W 000°19'0 0.0
2018-Jun-21 17:29N 39°27' W 000°19'0 0.0
2018-Jun-21 16:59N 39°27' W 000°19'0 0.0
2018-Jun-21 16:26N 39°27' W 000°19'0 0.0
2018-Jun-21 15:59N 39°27' W 000°19'0 0.0
2018-Jun-21 15:29N 39°27' W 000°19'0 0.0
2018-Jun-21 14:59N 39°27' W 000°19'0 0.0
2018-Jun-21 14:29N 39°27' W 000°19'0 0.0
2018-Jun-21 13:59N 39°27' W 000°19'0 0.0
2018-Jun-21 13:29N 39°27' W 000°19'0 0.0
2018-Jun-21 12:59N 39°27' W 000°19'0 0.0
2018-Jun-21 12:29N 39°27' W 000°19'0 0.0
2018-Jun-21 11:59N 39°27' W 000°19'0 0.0
2018-Jun-21 11:29N 39°27' W 000°19'0 0.0
2018-Jun-21 10:59N 39°27' W 000°19'0 0.0
2018-Jun-21 10:29N 39°27' W 000°19'0 0.0
2018-Jun-21 09:59N 39°27' W 000°19'0 0.0
2018-Jun-21 09:29N 39°27' W 000°19'0 0.0
2018-Jun-21 08:59N 39°27' W 000°19'0 0.0
2018-Jun-21 08:29N 39°27' W 000°19'0 0.0
2018-Jun-21 07:59N 39°27' W 000°19'0 0.0
2018-Jun-21 07:29N 39°27' W 000°19'0 0.0
2018-Jun-21 06:59N 39°27' W 000°19'0 0.0
2018-Jun-21 06:29N 39°27' W 000°19'0 0.0
2018-Jun-21 05:59N 39°27' W 000°19'0 0.0
2018-Jun-21 05:29N 39°27' W 000°19'0 0.0
2018-Jun-21 04:59N 39°27' W 000°19'0 0.0
2018-Jun-21 04:29N 39°27' W 000°19'0 0.0
2018-Jun-21 03:59N 39°27' W 000°19'0 0.0
2018-Jun-21 03:29N 39°27' W 000°19'0 0.0
2018-Jun-21 02:59N 39°27' W 000°19'0 0.0
2018-Jun-21 02:29N 39°27' W 000°19'0 0.0
2018-Jun-21 01:59N 39°27' W 000°19'0 0.0
2018-Jun-21 01:29N 39°27' W 000°19'0 0.0
2018-Jun-21 00:59N 39°27' W 000°19'0 0.0
2018-Jun-21 00:29N 39°27' W 000°19'0 0.0
2018-Jun-20 23:59N 39°27' W 000°19'0 0.0
2018-Jun-20 23:29N 39°27' W 000°19'0 0.0
2018-Jun-20 22:59N 39°27' W 000°19'0 0.0
2018-Jun-20 22:29N 39°27' W 000°19'0 0.0
2018-Jun-20 21:56N 39°27' W 000°19'0 0.0
2018-Jun-20 21:26N 39°27' W 000°19'0 0.0
2018-Jun-20 20:59N 39°27' W 000°19'0 0.0
2018-Jun-20 20:29N 39°27' W 000°19'0 0.0
2018-Jun-20 19:59N 39°27' W 000°19'0 0.0
2018-Jun-20 19:29N 39°27' W 000°19'0 0.0
2018-Jun-20 18:59N 39°27' W 000°19'0 0.0
2018-Jun-20 18:29N 39°27' W 000°19'0 0.0
2018-Jun-20 17:56N 39°27' W 000°19'0 0.0
2018-Jun-20 17:29N 39°27' W 000°19'0 0.0
2018-Jun-20 16:59N 39°27' W 000°19'0 0.0
2018-Jun-20 16:29N 39°27' W 000°19'0 0.0
2018-Jun-20 15:59N 39°27' W 000°19'0 0.0
2018-Jun-20 15:29N 39°27' W 000°19'0 0.0
2018-Jun-20 14:56N 39°27' W 000°19'0 0.0
2018-Jun-20 14:29N 39°27' W 000°19'0 0.0
2018-Jun-20 13:59N 39°27' W 000°19'0 0.0
2018-Jun-20 13:29N 39°27' W 000°19'0 0.0
2018-Jun-20 12:59N 39°27' W 000°19'0 0.0
2018-Jun-20 12:29N 39°27' W 000°19'0 0.0
2018-Jun-20 11:56N 39°27' W 000°19'0 0.0
2018-Jun-20 11:29N 39°27' W 000°19'0 0.0
2018-Jun-20 10:59N 39°27' W 000°19'0 0.0
2018-Jun-20 10:29N 39°27' W 000°19'0 0.0
2018-Jun-20 09:59N 39°27' W 000°19'0 0.0
2018-Jun-20 09:29N 39°27' W 000°19'0 0.0
2018-Jun-20 08:59N 39°27' W 000°19'0 0.0
2018-Jun-20 08:29N 39°27' W 000°19'0 0.0
2018-Jun-20 07:59N 39°27' W 000°19'0 0.0
2018-Jun-20 07:29N 39°27' W 000°19'0 0.0
2018-Jun-20 06:59N 39°27' W 000°19'0 0.0
2018-Jun-20 06:29N 39°27' W 000°19'0 0.0
2018-Jun-20 05:59N 39°27' W 000°19'0 0.0
2018-Jun-20 05:29N 39°27' W 000°19'0 0.0
2018-Jun-20 04:59N 39°27' W 000°19'0 0.0
2018-Jun-20 04:26N 39°27' W 000°19'0 0.0
2018-Jun-20 03:59N 39°27' W 000°19'0 0.0
2018-Jun-20 03:29N 39°27' W 000°19'1 2.6
2018-Jun-20 03:00N 39°26' W 000°18'4 8.4
2018-Jun-20 02:30N 39°28' W 000°13'510.4
2018-Jun-20 02:00N 39°32' W 000°09'137 9.9
2018-Jun-19 12:12N 41°06' E 002°02'310.7
2018-Jun-19 11:54N 41°08' E 002°04'4 9.6
2018-Jun-19 11:30N 41°12' E 002°07'5 9.2
2018-Jun-19 11:00N 41°15' E 002°10'4 8.4
2018-Jun-19 10:30N 41°20' E 002°10'1 2.5
2018-Jun-19 09:59N 41°21' E 002°10'0 0.0
2018-Jun-19 09:29N 41°21' E 002°10'0 0.0
2018-Jun-19 08:59N 41°21' E 002°10'0 0.0
2018-Jun-19 08:29N 41°21' E 002°10'0 0.0
2018-Jun-19 07:59N 41°21' E 002°10'0 0.0
2018-Jun-19 07:29N 41°21' E 002°10'0 0.0
2018-Jun-19 06:59N 41°21' E 002°10'0 0.0
2018-Jun-19 06:26N 41°21' E 002°10'0 0.0
2018-Jun-19 05:59N 41°21' E 002°10'0 0.0
2018-Jun-19 05:29N 41°21' E 002°10'0 0.0
2018-Jun-19 04:59N 41°21' E 002°10'0 0.0
2018-Jun-19 04:29N 41°21' E 002°10'0 0.0
2018-Jun-19 03:59N 41°21' E 002°10'0 0.0
2018-Jun-19 03:29N 41°21' E 002°10'0 0.0
2018-Jun-19 02:59N 41°21' E 002°10'0 0.0
2018-Jun-19 02:29N 41°21' E 002°10'0 0.0
2018-Jun-19 01:59N 41°21' E 002°10'0 0.0
2018-Jun-19 01:29N 41°21' E 002°10'0 0.0
2018-Jun-19 00:59N 41°21' E 002°10'0 0.0
2018-Jun-19 00:29N 41°21' E 002°10'0 0.0
2018-Jun-18 23:59N 41°21' E 002°10'0 0.0
2018-Jun-18 23:29N 41°21' E 002°10'0 0.0
2018-Jun-18 22:59N 41°21' E 002°10'0 0.0
2018-Jun-18 22:29N 41°21' E 002°10'0 0.0
2018-Jun-18 21:59N 41°21' E 002°10'0 0.0
2018-Jun-18 21:29N 41°21' E 002°10'0 0.0
2018-Jun-18 20:59N 41°21' E 002°10'0 0.0
2018-Jun-18 20:29N 41°21' E 002°10'0 0.0
2018-Jun-18 19:59N 41°21' E 002°10'0 0.0
2018-Jun-18 19:29N 41°21' E 002°10'0 0.0
2018-Jun-18 18:59N 41°21' E 002°10'0 0.0
2018-Jun-18 18:29N 41°21' E 002°10'0 0.0
2018-Jun-18 17:59N 41°21' E 002°10'0 0.0
2018-Jun-18 17:29N 41°21' E 002°10'0 0.0
2018-Jun-18 16:59N 41°21' E 002°10'0 0.0
2018-Jun-18 16:29N 41°21' E 002°10'0 0.0
2018-Jun-18 15:59N 41°21' E 002°10'0 0.0
2018-Jun-18 15:29N 41°21' E 002°10'0 0.0
2018-Jun-18 14:59N 41°21' E 002°10'0 0.0
2018-Jun-18 14:29N 41°21' E 002°10'0 0.0
2018-Jun-18 13:59N 41°21' E 002°10'0 0.0
2018-Jun-18 13:29N 41°21' E 002°10'0 0.0
2018-Jun-18 12:59N 41°21' E 002°10'0 0.0
2018-Jun-18 12:29N 41°21' E 002°10'0 0.0
2018-Jun-18 11:59N 41°21' E 002°10'0 0.0
2018-Jun-18 11:23N 41°21' E 002°10'0 0.0
2018-Jun-18 10:59N 41°21' E 002°10'0 0.0
2018-Jun-18 10:29N 41°21' E 002°10'0 0.0
2018-Jun-18 09:59N 41°21' E 002°10'0 0.0
2018-Jun-18 09:29N 41°21' E 002°10'0 0.0
2018-Jun-18 08:59N 41°21' E 002°10'0 0.0
2018-Jun-18 08:29N 41°21' E 002°10'0 0.0
2018-Jun-18 07:59N 41°21' E 002°10'0 0.0
2018-Jun-18 07:29N 41°21' E 002°10'0 0.0
2018-Jun-18 06:59N 41°21' E 002°10'0 0.0
2018-Jun-18 06:29N 41°21' E 002°10'0 0.0
2018-Jun-18 05:59N 41°21' E 002°10'0 0.0
2018-Jun-18 05:29N 41°21' E 002°10'0 0.0
2018-Jun-18 04:59N 41°21' E 002°10'0 0.2
2018-Jun-18 04:30N 41°21' E 002°10'3 6.1
2018-Jun-18 04:00N 41°18' E 002°11'4 7.3
2018-Jun-18 03:30N 41°16' E 002°14'612.3
2018-Jun-18 03:00N 41°13' E 002°22'714.1
2018-Jun-18 02:29N 41°10' E 002°31'65916.6
2018-Jun-16 10:46N 36°19' E 015°09'  
Track history (hours):
 
Tides and Currents Weather Stations Pressure Air Temp Water Temp Dewpoint Dewpoint Depression Visibility Wind Speed Wind Dir Waves Ship Positions

YM Utopia

Last reported at 2018-Jun-23 22:38 UTC. Time now 2018-Jun-24 04:50 UTC.
Position N 36°53' W 001°10'.

Length 333 m; draft 12.3 m.

Type: Ship (hazmat cat A). MMSI: 636013690.

Date/timePositionNaut miles runAvg speedWind from/ knotsBaromVisibWave heightAir tempDewpointWater temp
2018-Jun-23 22:38N 36°53' W 001°10'0 1.0
2018-Jun-23 22:30N 36°53' W 001°09'1 1.1
2018-Jun-23 21:35N 36°53' W 001°08'0 0.9
2018-Jun-23 21:30N 36°53' W 001°08'0 0.7
2018-Jun-23 21:00N 36°53' W 001°08'1 1.0
2018-Jun-23 20:30N 36°53' W 001°07'0 0.9
2018-Jun-23 20:00N 36°53' W 001°07'1 1.1
2018-Jun-23 19:30N 36°54' W 001°06'0 0.9
2018-Jun-23 19:00N 36°54' W 001°06'0 0.9
2018-Jun-23 18:30N 36°54' W 001°05'0 0.7
2018-Jun-23 18:00N 36°54' W 001°05'0 0.7
2018-Jun-23 17:29N 36°55' W 001°04'0 0.8
2018-Jun-23 17:00N 36°55' W 001°04'0 0.7
2018-Jun-23 16:29N 36°55' W 001°04'1 0.8
2018-Jun-23 15:40N 36°55' W 001°03'0 0.8
2018-Jun-23 15:30N 36°55' W 001°03'1 1.1
2018-Jun-23 14:55N 36°56' W 001°02'1 0.9
2018-Jun-23 14:12N 36°56' W 001°01'1 1.1
2018-Jun-23 13:11N 36°56' W 000°60'0 1.1
2018-Jun-23 13:00N 36°56' W 000°60'1 0.9
2018-Jun-23 11:27N 36°56' W 000°58'0 1.0
2018-Jun-23 10:59N 36°56' W 000°57'1 1.0
2018-Jun-23 10:08N 36°56' W 000°56'0 1.1
2018-Jun-23 09:59N 36°56' W 000°56'1 1.0
2018-Jun-23 08:55N 36°56' W 000°55'0 0.9
2018-Jun-23 08:22N 36°56' W 000°54'0 0.9
2018-Jun-23 08:00N 36°56' W 000°54'0 0.9
2018-Jun-23 07:30N 36°56' W 000°53'0 0.9
2018-Jun-23 07:00N 36°56' W 000°53'1 1.0
2018-Jun-23 06:30N 36°57' W 000°52'0 1.0
2018-Jun-23 06:00N 36°57' W 000°52'1 1.1
2018-Jun-23 05:30N 36°57' W 000°51'1 1.2
2018-Jun-23 04:41N 36°58' W 000°51'0 1.1
2018-Jun-23 04:30N 36°58' W 000°51'1 1.0
2018-Jun-23 03:58N 36°59' W 000°50'0 0.8
2018-Jun-23 03:30N 36°59' W 000°50'0 0.5
2018-Jun-23 03:00N 36°60' W 000°50'0 0.6
2018-Jun-23 02:30N 36°60' W 000°50'0 0.7
2018-Jun-23 02:00N 37°00' W 000°50'0 0.8
2018-Jun-23 01:30N 37°01' W 000°51'1 0.9
2018-Jun-23 00:01N 37°02' W 000°51'0 0.8
2018-Jun-23 00:00N 37°02' W 000°51'0 0.7
2018-Jun-22 23:27N 37°02' W 000°51'0 0.6
2018-Jun-22 23:00N 37°02' W 000°51'0 0.6
2018-Jun-22 22:29N 37°03' W 000°52'0 0.5
2018-Jun-22 21:35N 37°03' W 000°52'0 0.4
2018-Jun-22 21:30N 37°03' W 000°52'0 0.4
2018-Jun-22 21:00N 37°03' W 000°52'0 0.3
2018-Jun-22 20:30N 37°03' W 000°52'0 0.2
2018-Jun-22 20:00N 37°03' W 000°52'0 0.2
2018-Jun-22 19:30N 37°03' W 000°53'0 0.1
2018-Jun-22 19:00N 37°03' W 000°53'0 0.3
2018-Jun-22 18:30N 37°03' W 000°53'1 1.5
2018-Jun-22 18:00N 37°03' W 000°53'1110.6
2018-Jun-22 16:56N 37°11' W 000°43'612.7
2018-Jun-22 16:27N 37°14' W 000°36'0 0.9
2018-Jun-22 16:00N 37°14' W 000°36'1 2.0
2018-Jun-22 15:29N 37°13' W 000°37'612.1
2018-Jun-22 15:00N 37°19' W 000°38'713.4
2018-Jun-22 14:30N 37°26' W 000°38'713.1
2018-Jun-22 13:59N 37°32' W 000°36'713.6
2018-Jun-22 13:30N 37°37' W 000°31'713.8
2018-Jun-22 12:59N 37°43' W 000°26'713.5
2018-Jun-22 12:30N 37°49' W 000°21'713.6
2018-Jun-22 12:00N 37°54' W 000°17'713.6
2018-Jun-22 11:30N 38°00' W 000°12'713.6
2018-Jun-22 11:00N 38°06' W 000°07'713.7
2018-Jun-22 10:30N 38°12' W 000°03'713.7
2018-Jun-22 10:00N 38°18' E 000°02'816.1
2018-Jun-22 09:29N 38°25' E 000°07'2117.9
2018-Jun-22 08:18N 38°43' E 000°21'5014.0
2018-Jun-22 04:45N 39°24' W 000°15'311.9
2018-Jun-22 04:27N 39°26' W 000°19'1 1.5
2018-Jun-22 03:58N 39°27' W 000°19'0 0.0
2018-Jun-22 03:29N 39°27' W 000°19'0 0.0
2018-Jun-22 02:59N 39°27' W 000°19'0 0.0
2018-Jun-22 02:29N 39°27' W 000°19'0 0.0
2018-Jun-22 01:56N 39°27' W 000°19'0 0.0
2018-Jun-22 01:29N 39°27' W 000°19'0 0.0
2018-Jun-22 00:56N 39°27' W 000°19'0 0.0
2018-Jun-22 00:26N 39°27' W 000°19'0 0.0
2018-Jun-21 23:56N 39°27' W 000°19'0 0.0
2018-Jun-21 23:26N 39°27' W 000°19'0 0.0
2018-Jun-21 22:59N 39°27' W 000°19'0 0.0
2018-Jun-21 22:29N 39°27' W 000°19'0 0.0
2018-Jun-21 21:59N 39°27' W 000°19'0 0.0
2018-Jun-21 21:29N 39°27' W 000°19'0 0.0
2018-Jun-21 20:59N 39°27' W 000°19'0 0.0
2018-Jun-21 20:26N 39°27' W 000°19'0 0.0
2018-Jun-21 19:59N 39°27' W 000°19'0 0.0
2018-Jun-21 19:29N 39°27' W 000°19'0 0.0
2018-Jun-21 18:59N 39°27' W 000°19'0 0.0
2018-Jun-21 18:29N 39°27' W 000°19'0 0.0
2018-Jun-21 17:59N 39°27' W 000°19'0 0.0
2018-Jun-21 17:29N 39°27' W 000°19'0 0.0
2018-Jun-21 16:59N 39°27' W 000°19'0 0.0
2018-Jun-21 16:26N 39°27' W 000°19'0 0.0
2018-Jun-21 15:59N 39°27' W 000°19'0 0.0
2018-Jun-21 15:29N 39°27' W 000°19'0 0.0
2018-Jun-21 14:59N 39°27' W 000°19'0 0.0
2018-Jun-21 14:29N 39°27' W 000°19'0 0.0
2018-Jun-21 13:59N 39°27' W 000°19'0 0.0
2018-Jun-21 13:29N 39°27' W 000°19'0 0.0
2018-Jun-21 12:59N 39°27' W 000°19'0 0.0
2018-Jun-21 12:29N 39°27' W 000°19'0 0.0
2018-Jun-21 11:59N 39°27' W 000°19'0 0.0
2018-Jun-21 11:29N 39°27' W 000°19'0 0.0
2018-Jun-21 10:59N 39°27' W 000°19'0 0.0
2018-Jun-21 10:29N 39°27' W 000°19'0 0.0
2018-Jun-21 09:59N 39°27' W 000°19'0 0.0
2018-Jun-21 09:29N 39°27' W 000°19'0 0.0
2018-Jun-21 08:59N 39°27' W 000°19'0 0.0
2018-Jun-21 08:29N 39°27' W 000°19'0 0.0
2018-Jun-21 07:59N 39°27' W 000°19'0 0.0
2018-Jun-21 07:29N 39°27' W 000°19'0 0.0
2018-Jun-21 06:59N 39°27' W 000°19'0 0.0
2018-Jun-21 06:29N 39°27' W 000°19'0 0.0
2018-Jun-21 05:59N 39°27' W 000°19'0 0.0
2018-Jun-21 05:29N 39°27' W 000°19'0 0.0
2018-Jun-21 04:59N 39°27' W 000°19'0 0.0
2018-Jun-21 04:29N 39°27' W 000°19'0 0.0
2018-Jun-21 03:59N 39°27' W 000°19'0 0.0
2018-Jun-21 03:29N 39°27' W 000°19'0 0.0
2018-Jun-21 02:59N 39°27' W 000°19'0 0.0
2018-Jun-21 02:29N 39°27' W 000°19'0 0.0
2018-Jun-21 01:59N 39°27' W 000°19'0 0.0
2018-Jun-21 01:29N 39°27' W 000°19'0 0.0
2018-Jun-21 00:59N 39°27' W 000°19'0 0.0
2018-Jun-21 00:29N 39°27' W 000°19'0 0.0
2018-Jun-20 23:59N 39°27' W 000°19'0 0.0
2018-Jun-20 23:29N 39°27' W 000°19'0 0.0
2018-Jun-20 22:59N 39°27' W 000°19'0 0.0
2018-Jun-20 22:29N 39°27' W 000°19'0 0.0
2018-Jun-20 21:56N 39°27' W 000°19'0 0.0
2018-Jun-20 21:26N 39°27' W 000°19'0 0.0
2018-Jun-20 20:59N 39°27' W 000°19'0 0.0
2018-Jun-20 20:29N 39°27' W 000°19'0 0.0
2018-Jun-20 19:59N 39°27' W 000°19'0 0.0
2018-Jun-20 19:29N 39°27' W 000°19'0 0.0
2018-Jun-20 18:59N 39°27' W 000°19'0 0.0
2018-Jun-20 18:29N 39°27' W 000°19'0 0.0
2018-Jun-20 17:56N 39°27' W 000°19'0 0.0
2018-Jun-20 17:29N 39°27' W 000°19'0 0.0
2018-Jun-20 16:59N 39°27' W 000°19'0 0.0
2018-Jun-20 16:29N 39°27' W 000°19'0 0.0
2018-Jun-20 15:59N 39°27' W 000°19'0 0.0
2018-Jun-20 15:29N 39°27' W 000°19'0 0.0
2018-Jun-20 14:56N 39°27' W 000°19'0 0.0
2018-Jun-20 14:29N 39°27' W 000°19'0 0.0
2018-Jun-20 13:59N 39°27' W 000°19'0 0.0
2018-Jun-20 13:29N 39°27' W 000°19'0 0.0
2018-Jun-20 12:59N 39°27' W 000°19'0 0.0
2018-Jun-20 12:29N 39°27' W 000°19'0 0.0
2018-Jun-20 11:56N 39°27' W 000°19'0 0.0
2018-Jun-20 11:29N 39°27' W 000°19'0 0.0
2018-Jun-20 10:59N 39°27' W 000°19'0 0.0
2018-Jun-20 10:29N 39°27' W 000°19'0 0.0
2018-Jun-20 09:59N 39°27' W 000°19'0 0.0
2018-Jun-20 09:29N 39°27' W 000°19'0 0.0
2018-Jun-20 08:59N 39°27' W 000°19'0 0.0
2018-Jun-20 08:29N 39°27' W 000°19'0 0.0
2018-Jun-20 07:59N 39°27' W 000°19'0 0.0
2018-Jun-20 07:29N 39°27' W 000°19'0 0.0
2018-Jun-20 06:59N 39°27' W 000°19'0 0.0
2018-Jun-20 06:29N 39°27' W 000°19'0 0.0
2018-Jun-20 05:59N 39°27' W 000°19'0 0.0
2018-Jun-20 05:29N 39°27' W 000°19'0 0.0
2018-Jun-20 04:59N 39°27' W 000°19'0 0.0
2018-Jun-20 04:26N 39°27' W 000°19'0 0.0
2018-Jun-20 03:59N 39°27' W 000°19'0 0.0
2018-Jun-20 03:29N 39°27' W 000°19'1 2.6
2018-Jun-20 03:00N 39°26' W 000°18'4 8.4
2018-Jun-20 02:30N 39°28' W 000°13'510.4
2018-Jun-20 02:00N 39°32' W 000°09'137 9.9
2018-Jun-19 12:12N 41°06' E 002°02'310.7
2018-Jun-19 11:54N 41°08' E 002°04'4 9.6
2018-Jun-19 11:30N 41°12' E 002°07'5 9.2
2018-Jun-19 11:00N 41°15' E 002°10'4 8.4
2018-Jun-19 10:30N 41°20' E 002°10'1 2.5
2018-Jun-19 09:59N 41°21' E 002°10'0 0.0
2018-Jun-19 09:29N 41°21' E 002°10'0 0.0
2018-Jun-19 08:59N 41°21' E 002°10'0 0.0
2018-Jun-19 08:29N 41°21' E 002°10'0 0.0
2018-Jun-19 07:59N 41°21' E 002°10'0 0.0
2018-Jun-19 07:29N 41°21' E 002°10'0 0.0
2018-Jun-19 06:59N 41°21' E 002°10'0 0.0
2018-Jun-19 06:26N 41°21' E 002°10'0 0.0
2018-Jun-19 05:59N 41°21' E 002°10'0 0.0
2018-Jun-19 05:29N 41°21' E 002°10'0 0.0
2018-Jun-19 04:59N 41°21' E 002°10'0 0.0
2018-Jun-19 04:29N 41°21' E 002°10'0 0.0
2018-Jun-19 03:59N 41°21' E 002°10'0 0.0
2018-Jun-19 03:29N 41°21' E 002°10'0 0.0
2018-Jun-19 02:59N 41°21' E 002°10'0 0.0
2018-Jun-19 02:29N 41°21' E 002°10'0 0.0
2018-Jun-19 01:59N 41°21' E 002°10'0 0.0
2018-Jun-19 01:29N 41°21' E 002°10'0 0.0
2018-Jun-19 00:59N 41°21' E 002°10'0 0.0
2018-Jun-19 00:29N 41°21' E 002°10'0 0.0
2018-Jun-18 23:59N 41°21' E 002°10'0 0.0
2018-Jun-18 23:29N 41°21' E 002°10'0 0.0
2018-Jun-18 22:59N 41°21' E 002°10'0 0.0
2018-Jun-18 22:29N 41°21' E 002°10'0 0.0
2018-Jun-18 21:59N 41°21' E 002°10'0 0.0
2018-Jun-18 21:29N 41°21' E 002°10'0 0.0
2018-Jun-18 20:59N 41°21' E 002°10'0 0.0
2018-Jun-18 20:29N 41°21' E 002°10'0 0.0
2018-Jun-18 19:59N 41°21' E 002°10'0 0.0
2018-Jun-18 19:29N 41°21' E 002°10'0 0.0
2018-Jun-18 18:59N 41°21' E 002°10'0 0.0
2018-Jun-18 18:29N 41°21' E 002°10'0 0.0
2018-Jun-18 17:59N 41°21' E 002°10'0 0.0
2018-Jun-18 17:29N 41°21' E 002°10'0 0.0
2018-Jun-18 16:59N 41°21' E 002°10'0 0.0
2018-Jun-18 16:29N 41°21' E 002°10'0 0.0
2018-Jun-18 15:59N 41°21' E 002°10'0 0.0
2018-Jun-18 15:29N 41°21' E 002°10'0 0.0
2018-Jun-18 14:59N 41°21' E 002°10'0 0.0
2018-Jun-18 14:29N 41°21' E 002°10'0 0.0
2018-Jun-18 13:59N 41°21' E 002°10'0 0.0
2018-Jun-18 13:29N 41°21' E 002°10'0 0.0
2018-Jun-18 12:59N 41°21' E 002°10'0 0.0
2018-Jun-18 12:29N 41°21' E 002°10'0 0.0
2018-Jun-18 11:59N 41°21' E 002°10'0 0.0
2018-Jun-18 11:23N 41°21' E 002°10'0 0.0
2018-Jun-18 10:59N 41°21' E 002°10'0 0.0
2018-Jun-18 10:29N 41°21' E 002°10'0 0.0
2018-Jun-18 09:59N 41°21' E 002°10'0 0.0
2018-Jun-18 09:29N 41°21' E 002°10'0 0.0
2018-Jun-18 08:59N 41°21' E 002°10'0 0.0
2018-Jun-18 08:29N 41°21' E 002°10'0 0.0
2018-Jun-18 07:59N 41°21' E 002°10'0 0.0
2018-Jun-18 07:29N 41°21' E 002°10'0 0.0
2018-Jun-18 06:59N 41°21' E 002°10'0 0.0
2018-Jun-18 06:29N 41°21' E 002°10'0 0.0
2018-Jun-18 05:59N 41°21' E 002°10'0 0.0
2018-Jun-18 05:29N 41°21' E 002°10'0 0.0
2018-Jun-18 04:59N 41°21' E 002°10'0 0.2
2018-Jun-18 04:30N 41°21' E 002°10'3 6.1
2018-Jun-18 04:00N 41°18' E 002°11'4 7.3
2018-Jun-18 03:30N 41°16' E 002°14'612.3
2018-Jun-18 03:00N 41°13' E 002°22'714.1
2018-Jun-18 02:29N 41°10' E 002°31'65916.6
2018-Jun-16 10:46N 36°19' E 015°09'  

Dump ship's entire track history